Time;durP1;ratioP1;P1;durP2;ratioP2;P2;SDS_P1;SDS_P2;PMS_P1;PMS_P2;Temp;Humidity;BMP_temperature;BMP_pressure;BME280_temperature;BME280_humidity;BME280_pressure;Samples;Min_cycle;Max_cycle;Signal;HPM_P1;HPM_P2
2023/03/03 00:00:40;;;;;;;106.07;13.43;;;4.20;99.90;;;;;;6109916;23;20077;-94
2023/03/03 00:03:09;;;;;;;88.45;11.88;;;4.10;99.90;;;;;;6136504;23;20021;-94
2023/03/03 00:05:36;;;;;;;91.15;12.27;;;4.20;99.90;;;;;;6159827;23;20009;-94
2023/03/03 00:08:02;;;;;;;104.97;13.65;;;5.30;99.90;;;;;;6134942;23;20052;-94
2023/03/03 00:10:29;;;;;;;98.28;11.95;;;3.90;99.90;;;;;;6159344;23;20028;-94
2023/03/03 00:12:55;;;;;;;92.45;12.55;;;4.00;99.90;;;;;;6133290;23;20032;-93
2023/03/03 00:15:23;;;;;;;74.40;11.93;;;3.90;99.90;;;;;;6134968;23;20021;-94
2023/03/03 00:17:50;;;;;;;78.18;10.68;;;3.80;99.90;;;;;;6158115;23;20328;-93
2023/03/03 00:20:36;;;;;;;64.90;9.45;;;3.90;99.90;;;;;;6159807;23;20021;-94
2023/03/03 00:23:31;;;;;;;106.57;12.20;;;3.90;99.90;;;;;;6158507;23;20029;-94
2023/03/03 00:25:58;;;;;;;136.85;14.00;;;3.80;99.90;;;;;;6157855;23;20645;-94
2023/03/03 00:28:55;;;;;;;90.30;11.48;;;4.00;99.90;;;;;;6108887;23;20446;-94
2023/03/03 00:31:35;;;;;;;129.15;13.00;;;3.90;99.90;;;;;;6183184;23;20087;-94
2023/03/03 00:34:27;;;;;;;95.53;10.68;;;3.80;99.90;;;;;;6160067;23;20068;-94
2023/03/03 00:36:55;;;;;;;94.50;10.55;;;3.90;99.90;;;;;;6160223;23;20017;-95
2023/03/03 00:39:37;;;;;;;100.15;11.50;;;3.80;99.90;;;;;;6159497;23;20017;-94
2023/03/03 00:42:14;;;;;;;142.82;12.02;;;3.70;99.90;;;;;;6159682;23;20024;-94
2023/03/03 00:44:46;;;;;;;99.38;11.48;;;3.90;99.90;;;;;;6158763;23;20052;-94
2023/03/03 00:47:35;;;;;;;99.75;10.48;;;4.30;99.90;;;;;;6158597;23;20472;-94
2023/03/03 00:50:26;;;;;;;104.97;11.77;;;3.90;99.90;;;;;;6159666;23;20020;-94
2023/03/03 00:53:26;;;;;;;79.60;10.45;;;3.80;99.90;;;;;;6160865;23;20048;-95
2023/03/03 00:55:52;;;;;;;76.82;10.07;;;3.80;99.90;;;;;;6105625;23;20021;-94
2023/03/03 00:58:20;;;;;;;87.18;10.25;;;3.80;99.90;;;;;;6134219;23;20017;-93
2023/03/03 01:00:51;;;;;;;98.38;11.00;;;3.60;99.90;;;;;;6157345;23;20394;-94
2023/03/03 01:03:23;;;;;;;99.53;10.77;;;3.60;99.90;;;;;;6158480;23;20136;-94
2023/03/03 01:05:50;;;;;;;76.93;10.50;;;3.60;99.90;;;;;;6134780;23;20028;-94
2023/03/03 01:08:18;;;;;;;67.63;8.68;;;3.70;99.90;;;;;;6160805;23;20124;-94
2023/03/03 01:11:12;;;;;;;94.43;10.60;;;3.70;99.90;;;;;;6134552;23;20021;-94
2023/03/03 01:13:41;;;;;;;84.85;9.10;;;4.30;99.90;;;;;;6179507;23;20049;-95
2023/03/03 01:16:07;;;;;;;79.55;9.23;;;4.10;99.90;;;;;;6159601;23;20498;-95
2023/03/03 01:18:34;;;;;;;78.63;9.63;;;3.70;99.90;;;;;;6133824;23;20036;-95
2023/03/03 01:21:00;;;;;;;119.65;10.60;;;3.70;99.90;;;;;;6158587;23;20390;-94
2023/03/03 01:23:27;;;;;;;80.68;10.68;;;3.70;99.90;;;;;;6135418;23;20090;-94
2023/03/03 01:25:54;;;;;;;88.20;11.10;;;3.60;99.90;;;;;;6133790;23;20514;-94
2023/03/03 01:28:20;;;;;;;113.40;12.10;;;3.60;99.90;;;;;;6133529;23;20018;-94
2023/03/03 01:30:46;;;;;;;116.32;10.50;;;3.80;99.90;;;;;;6160578;23;20390;-94
2023/03/03 01:33:12;;;;;;;137.48;11.68;;;3.70;99.90;;;;;;6157580;23;20025;-94
2023/03/03 01:35:43;;;;;;;213.70;15.10;;;5.20;99.90;;;;;;6136959;23;20025;-95
2023/03/03 01:38:09;;;;;;;157.82;13.65;;;3.20;99.90;;;;;;6160992;23;20013;-95
2023/03/03 01:40:35;;;;;;;169.73;15.43;;;3.30;99.90;;;;;;6135318;23;20017;-95
2023/03/03 01:43:01;;;;;;;165.48;13.00;;;;;;;;;;6160406;23;20020;-94
2023/03/03 01:45:30;;;;;;;156.00;13.45;;;3.90;99.90;;;;;;6161847;23;20017;-94
2023/03/03 01:48:05;;;;;;;142.68;12.48;;;3.40;99.90;;;;;;6137070;23;20021;-95
2023/03/03 01:50:57;;;;;;;113.78;12.98;;;3.30;99.90;;;;;;6161517;23;20092;-94
2023/03/03 01:53:32;;;;;;;150.18;14.95;;;3.30;99.90;;;;;;6189452;23;20051;-95
2023/03/03 01:55:58;;;;;;;;;;;3.20;99.90;;;;;;6159085;23;20017;-95
2023/03/03 01:58:58;;;;;;;166.13;14.18;;;3.50;99.90;;;;;;6159912;23;20002;-95
2023/03/03 02:01:27;;;;;;;137.70;13.05;;;3.10;99.90;;;;;;6158635;23;20024;-94
2023/03/03 02:03:53;;;;;;;193.70;16.10;;;4.50;99.90;;;;;;6160404;23;20075;-94
2023/03/03 02:06:26;;;;;;;158.73;13.38;;;2.90;99.90;;;;;;6135193;23;20351;-95
2023/03/03 02:09:28;;;;;;;249.82;16.90;;;1.40;99.90;;;;;;6135012;23;20025;-95
2023/03/03 02:11:58;;;;;;;164.75;13.20;;;3.40;99.90;;;;;;6160243;23;20005;-95
2023/03/03 02:14:24;;;;;;;148.82;12.90;;;3.00;99.90;;;;;;6160073;23;20073;-95
2023/03/03 02:16:51;;;;;;;171.05;13.23;;;3.20;99.90;;;;;;6158917;23;20099;-94
2023/03/03 02:19:37;;;;;;;131.52;10.50;;;3.40;99.90;;;;;;6158390;23;20465;-93
2023/03/03 02:22:03;;;;;;;182.38;14.38;;;3.10;99.90;;;;;;6160592;23;20478;-93
2023/03/03 02:24:50;;;;;;;104.97;9.52;;;2.70;99.90;;;;;;6136618;23;20021;-93
2023/03/03 02:27:16;;;;;;;170.75;11.90;;;2.90;99.90;;;;;;6137552;23;20048;-94
2023/03/03 02:29:43;;;;;;;135.93;10.50;;;2.60;99.90;;;;;;6111684;23;20083;-94
2023/03/03 02:32:09;;;;;;;101.00;8.55;;;2.60;99.90;;;;;;6159640;23;20024;-94
2023/03/03 02:34:51;;;;;;;161.88;9.00;;;4.40;99.90;;;;;;6135434;23;20013;-94
2023/03/03 02:37:19;;;;;;;115.45;8.68;;;2.70;99.90;;;;;;6158926;23;20032;-95
2023/03/03 02:39:46;;;;;;;77.88;8.98;;;4.90;99.90;;;;;;6159304;23;20009;-95
2023/03/03 02:42:26;;;;;;;133.40;9.57;;;2.50;99.90;;;;;;6159777;23;20228;-95
2023/03/03 02:44:52;;;;;;;126.65;8.95;;;3.10;99.90;;;;;;6160421;23;20051;-95
2023/03/03 02:47:17;;;;;;;119.45;9.35;;;2.90;99.90;;;;;;6157768;23;20020;-94
2023/03/03 02:49:44;;;;;;;101.32;8.52;;;3.80;99.90;;;;;;6134151;23;20100;-95
2023/03/03 02:52:13;;;;;;;77.10;7.60;;;3.70;99.90;;;;;;6134637;23;20041;-94
2023/03/03 02:54:39;;;;;;;82.47;8.15;;;3.00;99.90;;;;;;6157647;23;20053;-95
2023/03/03 02:57:08;;;;;;;168.60;11.00;;;2.40;99.90;;;;;;6111040;23;20063;-95
2023/03/03 02:59:37;;;;;;;62.05;6.50;;;4.00;99.90;;;;;;6137820;23;20064;-94
2023/03/03 03:02:02;;;;;;;50.03;6.78;;;2.90;99.90;;;;;;6111138;23;20051;-95
2023/03/03 03:04:28;;;;;;;56.17;6.85;;;3.00;99.90;;;;;;6161380;23;20032;-94
2023/03/03 03:07:03;;;;;;;30.90;5.90;;;2.20;99.90;;;;;;6137029;23;20017;-95
2023/03/03 03:09:29;;;;;;;46.92;7.40;;;2.80;99.90;;;;;;6112284;23;20021;-95
2023/03/03 03:11:55;;;;;;;53.45;6.82;;;3.60;99.90;;;;;;6135989;23;20024;-94
2023/03/03 03:14:22;;;;;;;40.28;6.50;;;3.00;99.90;;;;;;6160297;23;20020;-94
2023/03/03 03:16:48;;;;;;;41.05;6.25;;;3.20;99.90;;;;;;6160308;23;20092;-94
2023/03/03 03:19:17;;;;;;;74.72;6.90;;;3.70;99.90;;;;;;6110746;23;20313;-95
2023/03/03 03:21:42;;;;;;;40.42;6.72;;;2.40;99.90;;;;;;6134826;23;20032;-95
2023/03/03 03:24:08;;;;;;;16.67;6.55;;;1.30;99.90;;;;;;6136112;23;20036;-94
2023/03/03 03:26:34;;;;;;;28.10;6.53;;;3.10;99.90;;;;;;6134697;23;20005;-94
2023/03/03 03:29:00;;;;;;;37.72;6.88;;;2.00;99.90;;;;;;6133900;23;20060;-94
2023/03/03 03:31:26;;;;;;;36.05;6.55;;;1.70;99.90;;;;;;6133765;23;20020;-94
2023/03/03 03:33:52;;;;;;;31.80;6.63;;;2.30;99.90;;;;;;6132689;23;20123;-94
2023/03/03 03:36:18;;;;;;;45.85;7.00;;;2.00;99.90;;;;;;6182518;23;20020;-94
2023/03/03 03:38:43;;;;;;;23.27;6.70;;;2.40;99.90;;;;;;6157811;23;20071;-94
2023/03/03 03:41:11;;;;;;;78.88;8.65;;;2.40;99.90;;;;;;6133605;23;20032;-94
2023/03/03 03:43:37;;;;;;;38.83;7.70;;;3.70;99.90;;;;;;6157273;23;20024;-94
2023/03/03 03:46:03;;;;;;;33.15;7.07;;;1.80;99.90;;;;;;6133691;23;20012;-95
2023/03/03 03:48:29;;;;;;;38.83;7.65;;;1.90;99.90;;;;;;6133479;23;20029;-94
2023/03/03 03:50:55;;;;;;;37.80;7.25;;;2.90;99.90;;;;;;6135302;23;20009;-94
2023/03/03 03:53:22;;;;;;;39.40;7.55;;;2.10;99.90;;;;;;6111004;23;20021;-93
2023/03/03 03:55:47;;;;;;;33.83;7.95;;;3.00;99.90;;;;;;6135832;23;20044;-95
2023/03/03 03:58:15;;;;;;;54.42;8.45;;;1.90;99.90;;;;;;6158710;23;20021;-94
2023/03/03 04:00:43;;;;;;;26.65;7.45;;;2.80;99.90;;;;;;6158862;23;20032;-95
2023/03/03 04:03:09;;;;;;;23.13;7.07;;;1.90;99.90;;;;;;6160805;23;20092;-94
2023/03/03 04:05:36;;;;;;;25.88;8.13;;;1.80;99.90;;;;;;6136886;23;20020;-94
2023/03/03 04:08:02;;;;;;;18.00;6.88;;;1.70;99.90;;;;;;6160141;23;20027;-93
2023/03/03 04:10:28;;;;;;;26.15;7.88;;;;;;;;;;6136104;23;20049;-94
2023/03/03 04:12:54;;;;;;;29.05;6.63;;;1.60;99.90;;;;;;6159871;23;20346;-94
2023/03/03 04:15:20;;;;;;;27.55;8.38;;;2.50;99.90;;;;;;6134189;23;20027;-93
2023/03/03 04:17:46;;;;;;;25.33;7.72;;;1.70;99.90;;;;;;6109816;23;20013;-94
2023/03/03 04:20:15;;;;;;;21.15;9.00;;;3.20;99.90;;;;;;6159096;23;20029;-94
2023/03/03 04:22:42;;;;;;;19.25;7.85;;;2.80;99.90;;;;;;6109937;23;20105;-93
2023/03/03 04:25:11;;;;;;;25.45;8.05;;;2.30;99.90;;;;;;6160442;23;20017;-93
2023/03/03 04:27:37;;;;;;;34.33;9.10;;;1.50;99.90;;;;;;6138680;23;20024;-94
2023/03/03 04:30:04;;;;;;;21.30;8.15;;;3.00;99.90;;;;;;6112657;23;20024;-93
2023/03/03 04:32:32;;;;;;;21.63;7.80;;;1.40;99.90;;;;;;6137524;23;20075;-94
2023/03/03 04:34:58;;;;;;;24.10;7.50;;;3.10;99.90;;;;;;6162372;23;20020;-94
2023/03/03 04:37:24;;;;;;;56.22;10.27;;;1.50;99.90;;;;;;6160707;23;20005;-94
2023/03/03 04:39:50;;;;;;;33.20;9.32;;;1.50;99.90;;;;;;6136451;23;20013;-93
2023/03/03 04:42:16;;;;;;;32.53;7.70;;;1.30;99.90;;;;;;6134125;23;20020;-93
2023/03/03 04:44:42;;;;;;;37.55;8.30;;;1.90;99.90;;;;;;6158098;23;20480;-94
2023/03/03 04:47:08;;;;;;;22.48;7.13;;;1.50;99.90;;;;;;6136037;23;20082;-94
2023/03/03 04:49:33;;;;;;;24.13;7.40;;;1.60;99.90;;;;;;6111116;23;20017;-94
2023/03/03 04:51:59;;;;;;;27.88;7.72;;;1.40;99.90;;;;;;6161869;23;20021;-94
2023/03/03 04:54:25;;;;;;;25.42;8.27;;;1.80;99.90;;;;;;6160001;23;20028;-94
2023/03/03 04:56:51;;;;;;;21.23;7.70;;;1.30;99.90;;;;;;6136391;23;20048;-93
2023/03/03 04:59:17;;;;;;;21.02;8.25;;;1.60;99.90;;;;;;6160405;23;20041;-94
2023/03/03 05:01:45;;;;;;;19.55;7.60;;;1.60;99.90;;;;;;6136152;23;20024;-93
2023/03/03 05:04:11;;;;;;;23.27;8.07;;;1.30;99.90;;;;;;6134055;23;20454;-93
2023/03/03 05:06:37;;;;;;;26.20;9.27;;;2.10;99.90;;;;;;6157590;23;20123;-93
2023/03/03 05:09:03;;;;;;;18.27;8.25;;;1.90;99.90;;;;;;6135034;23;20450;-93
2023/03/03 05:11:28;;;;;;;15.68;7.97;;;1.90;99.90;;;;;;6158389;23;20237;-93
2023/03/03 05:13:55;;;;;;;21.55;8.35;;;1.90;99.90;;;;;;6159216;23;20025;-93
2023/03/03 05:16:20;;;;;;;17.42;7.85;;;1.40;99.90;;;;;;6134451;23;20028;-93
2023/03/03 05:18:47;;;;;;;16.95;8.15;;;1.40;99.90;;;;;;6134425;23;20005;-93
2023/03/03 05:21:13;;;;;;;18.15;8.02;;;2.90;99.90;;;;;;6135151;23;20024;-93
2023/03/03 05:23:39;;;;;;;19.17;8.02;;;1.40;99.90;;;;;;6159963;23;20013;-93
2023/03/03 05:26:05;;;;;;;17.33;8.23;;;2.90;99.90;;;;;;6133792;23;20097;-92
2023/03/03 05:28:32;;;;;;;20.30;8.70;;;1.50;99.90;;;;;;6159714;23;20025;-93
2023/03/03 05:30:58;;;;;;;19.13;8.95;;;-0.30;99.90;;;;;;6134816;23;20024;-94
2023/03/03 05:33:24;;;;;;;20.23;8.73;;;1.60;99.90;;;;;;6159031;23;20017;-93
2023/03/03 05:35:54;;;;;;;16.65;7.57;;;3.60;99.90;;;;;;6134260;23;20096;-93
2023/03/03 05:38:21;;;;;;;20.90;8.68;;;1.50;99.90;;;;;;6110104;23;20020;-93
2023/03/03 05:40:47;;;;;;;15.85;8.25;;;1.70;99.90;;;;;;6157795;23;20048;-93
2023/03/03 05:43:13;;;;;;;22.45;9.07;;;1.70;99.90;;;;;;6160177;23;20005;-93
2023/03/03 05:45:39;;;;;;;19.20;8.68;;;;;;;;;;6108541;23;20055;-93
2023/03/03 05:48:05;;;;;;;21.42;9.15;;;1.40;99.90;;;;;;6133633;23;20044;-93
2023/03/03 05:50:31;;;;;;;25.17;10.27;;;1.40;99.90;;;;;;6133401;23;20017;-93
2023/03/03 05:52:58;;;;;;;22.30;10.35;;;3.20;99.90;;;;;;6136435;23;20024;-93
2023/03/03 05:55:24;;;;;;;21.00;8.95;;;2.40;99.90;;;;;;6134646;23;20009;-93
2023/03/03 05:57:49;;;;;;;17.35;8.27;;;2.30;99.90;;;;;;6157897;23;20016;-93
2023/03/03 06:00:16;;;;;;;16.23;8.95;;;1.40;99.90;;;;;;6134410;23;20048;-93
2023/03/03 06:02:42;;;;;;;13.63;8.27;;;1.50;99.90;;;;;;6109135;23;20052;-92
2023/03/03 06:05:09;;;;;;;17.52;8.85;;;2.70;99.90;;;;;;6158596;23;20079;-93
2023/03/03 06:07:38;;;;;;;17.40;9.63;;;3.20;99.90;;;;;;6160088;23;20065;-93
2023/03/03 06:10:04;;;;;;;25.23;13.38;;;1.80;99.90;;;;;;6110837;23;20081;-92
2023/03/03 06:12:30;;;;;;;19.55;10.52;;;1.30;99.90;;;;;;6159787;23;20033;-92
2023/03/03 06:14:56;;;;;;;16.38;9.82;;;1.30;99.90;;;;;;6133523;23;20167;-93
2023/03/03 06:17:22;;;;;;;16.73;8.82;;;3.30;99.90;;;;;;6134720;23;20020;-93
2023/03/03 06:19:48;;;;;;;17.85;8.40;;;1.60;99.90;;;;;;6135731;23;20100;-94
2023/03/03 06:22:14;;;;;;;15.70;8.55;;;3.80;99.90;;;;;;6158237;23;20017;-93
2023/03/03 06:24:39;;;;;;;14.35;8.57;;;2.70;99.90;;;;;;6161372;23;20013;-94
2023/03/03 06:27:06;;;;;;;16.63;7.43;;;;;;;;;;6159899;23;20060;-93
2023/03/03 06:29:32;;;;;;;11.43;7.55;;;1.60;99.90;;;;;;6134801;23;20048;-93
2023/03/03 06:31:58;;;;;;;14.10;8.43;;;2.10;99.90;;;;;;6159854;23;20017;-94
2023/03/03 06:34:24;;;;;;;13.05;8.10;;;1.80;99.90;;;;;;6108476;23;20120;-94
2023/03/03 06:36:53;;;;;;;15.15;8.50;;;1.70;99.90;;;;;;6132506;23;20123;-93
2023/03/03 06:39:19;;;;;;;14.10;8.07;;;1.60;99.90;;;;;;6106957;23;20099;-94
2023/03/03 06:41:45;;;;;;;13.85;8.50;;;2.10;99.90;;;;;;6160849;23;20021;-93
2023/03/03 06:44:11;;;;;;;13.48;7.40;;;1.70;99.90;;;;;;6135892;23;20021;-93
2023/03/03 06:46:37;;;;;;;15.55;8.50;;;2.50;99.90;;;;;;6110272;23;20078;-93
2023/03/03 06:49:03;;;;;;;14.05;8.10;;;1.90;99.90;;;;;;6134134;23;20024;-94
2023/03/03 06:51:34;;;;;;;17.88;7.95;;;2.30;99.90;;;;;;6158468;23;20017;-93
2023/03/03 06:54:18;;;;;;;14.55;8.38;;;2.00;99.90;;;;;;6159848;23;20015;-93
2023/03/03 06:56:45;;;;;;;14.52;7.82;;;2.30;99.90;;;;;;6163816;23;20021;-93
2023/03/03 06:59:18;;;;;;;13.68;8.30;;;1.30;99.90;;;;;;6168980;23;20668;-95
2023/03/03 07:01:46;;;;;;;12.32;8.05;;;2.30;99.90;;;;;;6160605;23;20023;-93
2023/03/03 07:04:18;;;;;;;16.65;9.43;;;2.30;99.90;;;;;;6159483;23;20353;-94
2023/03/03 07:06:44;;;;;;;17.58;9.48;;;2.40;99.90;;;;;;6161922;23;20027;-93
2023/03/03 07:09:29;;;;;;;17.58;9.30;;;2.40;99.90;;;;;;6160361;23;20020;-94
2023/03/03 07:12:09;;;;;;;16.23;9.07;;;1.60;99.90;;;;;;6162061;23;20447;-93
2023/03/03 07:14:42;;;;;;;18.92;9.68;;;5.70;99.90;;;;;;6161529;23;20017;-94
2023/03/03 07:17:17;;;;;;;17.65;9.95;;;2.90;99.90;;;;;;6161310;23;20104;-93
2023/03/03 07:19:43;;;;;;;11.55;8.48;;;2.90;99.90;;;;;;6162100;23;20588;-94
2023/03/03 07:22:14;;;;;;;12.00;7.93;;;3.40;99.90;;;;;;6161743;23;20454;-94
2023/03/03 07:24:42;;;;;;;15.25;8.60;;;2.90;99.90;;;;;;6161525;23;20044;-94
2023/03/03 07:27:24;;;;;;;12.13;7.53;;;1.10;99.90;;;;;;6159540;23;20466;-94
2023/03/03 07:29:52;;;;;;;12.57;8.52;;;3.90;99.90;;;;;;6159269;23;20080;-94
2023/03/03 07:32:43;;;;;;;13.75;9.77;;;2.50;99.90;;;;;;6133669;23;20048;-94
2023/03/03 07:35:30;;;;;;;12.32;8.30;;;3.50;99.90;;;;;;6159254;23;20017;-94
2023/03/03 07:37:56;;;;;;;10.93;7.30;;;4.30;99.90;;;;;;6159625;23;20013;-94
2023/03/03 07:40:37;;;;;;;9.63;6.15;;;5.30;99.90;;;;;;6135493;23;20025;-94
2023/03/03 07:43:30;;;;;;;10.50;6.30;;;4.20;99.90;;;;;;6164326;23;20040;-94
2023/03/03 07:46:26;;;;;;;8.95;6.20;;;4.20;99.90;;;;;;6159477;23;20059;-95
2023/03/03 07:48:53;;;;;;;7.13;5.25;;;4.20;99.90;;;;;;6160464;23;20013;-95
2023/03/03 07:51:59;;;;;;;10.25;7.03;;;4.20;99.90;;;;;;6160751;23;20048;-95
2023/03/03 07:54:39;;;;;;;11.73;6.82;;;4.00;99.90;;;;;;6087376;23;20466;-95
2023/03/03 07:57:12;;;;;;;10.15;6.90;;;4.80;99.90;;;;;;6161718;23;20017;-96
2023/03/03 07:59:43;;;;;;;10.27;6.80;;;4.10;99.90;;;;;;6160365;23;20017;-95
2023/03/03 08:02:24;;;;;;;11.18;8.23;;;4.00;99.90;;;;;;6163003;23;20021;-95
2023/03/03 08:04:51;;;;;;;11.85;7.90;;;4.10;99.90;;;;;;6163620;23;20043;-96
2023/03/03 08:07:20;;;;;;;12.00;8.00;;;4.30;99.90;;;;;;6163446;23;20009;-94
2023/03/03 08:10:00;;;;;;;12.90;7.40;;;4.30;99.90;;;;;;6162856;23;20036;-94
2023/03/03 08:12:40;;;;;;;13.73;7.13;;;4.30;99.90;;;;;;6162948;23;20021;-95
2023/03/03 08:15:18;;;;;;;13.63;7.03;;;4.60;99.90;;;;;;6163456;23;20023;-95
2023/03/03 08:17:45;;;;;;;9.02;6.38;;;4.30;99.90;;;;;;6163887;23;20013;-94
2023/03/03 08:20:38;;;;;;;10.30;5.88;;;4.40;99.90;;;;;;6137761;23;20025;-96
2023/03/03 08:23:03;;;;;;;10.35;7.13;;;4.20;99.90;;;;;;6162768;23;20013;-95
2023/03/03 08:25:29;;;;;;;11.52;6.45;;;4.50;99.90;;;;;;6137808;23;20008;-95
2023/03/03 08:28:01;;;;;;;9.15;6.65;;;4.30;99.90;;;;;;6113728;23;20013;-95
2023/03/03 08:30:29;;;;;;;10.30;7.43;;;4.50;99.90;;;;;;6113500;23;20013;-95
2023/03/03 08:32:55;;;;;;;11.13;6.40;;;4.30;99.90;;;;;;6136805;23;20016;-95
2023/03/03 08:35:21;;;;;;;9.80;6.40;;;4.30;99.90;;;;;;6137148;23;20108;-95
2023/03/03 08:37:47;;;;;;;8.40;6.30;;;2.50;99.90;;;;;;6137060;23;20020;-95
2023/03/03 08:40:13;;;;;;;7.93;6.03;;;4.50;99.90;;;;;;6138035;23;20139;-95
2023/03/03 08:42:39;;;;;;;8.18;5.80;;;4.60;99.90;;;;;;6137397;23;20921;-95
2023/03/03 08:45:05;;;;;;;9.38;6.05;;;4.70;99.90;;;;;;6114071;23;20690;-95
2023/03/03 08:47:31;;;;;;;11.43;7.18;;;3.70;99.90;;;;;;6137900;23;20021;-95
2023/03/03 08:49:56;;;;;;;10.85;6.00;;;2.80;99.90;;;;;;6139112;23;20119;-95
2023/03/03 08:52:22;;;;;;;9.65;6.70;;;4.70;99.90;;;;;;6138289;23;20016;-95
2023/03/03 08:54:48;;;;;;;10.75;6.68;;;4.80;99.90;;;;;;6162630;23;20028;-93
2023/03/03 08:57:14;;;;;;;11.52;7.10;;;4.50;99.90;;;;;;6112030;23;20058;-94
2023/03/03 08:59:40;;;;;;;10.65;6.68;;;4.60;99.90;;;;;;6136462;23;20023;-94
2023/03/03 09:02:06;;;;;;;10.02;6.30;;;;;;;;;;6162969;23;20076;-94
2023/03/03 09:04:32;;;;;;;10.43;7.00;;;4.70;99.90;;;;;;6163153;23;20052;-94
2023/03/03 09:06:58;;;;;;;11.60;6.93;;;4.70;99.90;;;;;;6113502;23;20068;-94
2023/03/03 09:09:26;;;;;;;11.68;7.28;;;5.10;99.90;;;;;;6137658;23;20013;-94
2023/03/03 09:12:21;;;;;;;13.38;7.50;;;4.90;99.90;;;;;;6114720;23;20008;-94
2023/03/03 09:14:49;;;;;;;11.05;7.47;;;5.40;99.90;;;;;;6187813;23;20013;-94
2023/03/03 09:17:26;;;;;;;11.45;7.03;;;5.40;99.90;;;;;;6185747;23;20020;-93
2023/03/03 09:19:57;;;;;;;13.20;7.28;;;5.30;99.90;;;;;;6185934;23;20450;-94
2023/03/03 09:22:25;;;;;;;9.82;6.57;;;5.50;99.90;;;;;;6161897;23;20044;-93
2023/03/03 09:24:57;;;;;;;10.50;7.47;;;5.50;99.90;;;;;;6162566;23;20025;-94
2023/03/03 09:27:28;;;;;;;10.70;7.25;;;5.80;99.90;;;;;;6160170;23;20012;-93
2023/03/03 09:30:15;;;;;;;10.57;7.47;;;5.90;99.90;;;;;;6160793;23;20012;-94
2023/03/03 09:32:41;;;;;;;11.95;7.07;;;6.00;99.90;;;;;;6160787;23;20025;-93
2023/03/03 09:35:26;;;;;;;10.68;7.38;;;6.10;99.90;;;;;;6160338;23;20004;-94
2023/03/03 09:37:52;;;;;;;11.27;7.35;;;6.10;99.90;;;;;;6185595;23;20021;-94
2023/03/03 09:40:42;;;;;;;9.75;7.13;;;6.20;99.90;;;;;;6135145;23;20005;-94
2023/03/03 09:43:22;;;;;;;10.85;7.13;;;6.30;99.90;;;;;;6160084;23;20418;-94
2023/03/03 09:45:56;;;;;;;9.75;6.82;;;6.60;99.90;;;;;;6138849;23;20075;-95
2023/03/03 09:48:37;;;;;;;11.07;7.03;;;6.50;99.90;;;;;;6160238;23;20044;-94
2023/03/03 09:51:20;;;;;;;9.82;7.25;;;6.80;99.90;;;;;;6159654;23;20092;-95
2023/03/03 09:54:04;;;;;;;10.68;6.75;;;6.90;99.90;;;;;;6161729;23;20050;-95
2023/03/03 09:56:36;;;;;;;10.10;6.38;;;7.20;99.90;;;;;;6161661;23;20320;-95
2023/03/03 09:59:21;;;;;;;9.05;6.75;;;7.40;99.90;;;;;;6161312;23;20021;-96
2023/03/03 10:02:27;;;;;;;10.03;6.20;;;7.20;99.90;;;;;;6156311;23;20024;-92
2023/03/03 10:05:29;;;;;;;12.07;7.05;;;7.50;99.90;;;;;;6162735;23;20048;-96
2023/03/03 10:08:20;;;;;;;10.98;6.78;;;7.90;99.90;;;;;;6059420;23;20401;-95
2023/03/03 10:10:55;;;;;;;9.45;6.60;;;8.40;99.90;;;;;;6161370;23;20121;-95
2023/03/03 10:13:21;;;;;;;7.90;5.68;;;8.80;99.90;;;;;;6159814;23;20021;-94
2023/03/03 10:15:56;;;;;;;10.07;5.18;;;9.20;99.90;;;;;;6161807;23;20028;-95
2023/03/03 10:18:34;;;;;;;7.25;5.35;;;9.20;99.90;;;;;;6161694;23;20024;-95
2023/03/03 10:21:07;;;;;;;8.23;4.95;;;9.40;99.90;;;;;;6161550;23;20442;-96
2023/03/03 10:24:01;;;;;;;7.13;4.70;;;8.80;99.90;;;;;;6161868;23;20042;-95
2023/03/03 10:26:56;;;;;;;8.32;5.13;;;9.10;99.90;;;;;;6160201;23;20013;-94
2023/03/03 10:30:01;;;;;;;11.85;4.72;;;9.70;99.90;;;;;;6162448;23;20107;-95
2023/03/03 10:32:50;;;;;;;7.45;3.90;;;9.80;99.90;;;;;;6166250;23;20201;-93
2023/03/03 10:35:39;;;;;;;8.10;4.53;;;9.70;99.90;;;;;;6161901;23;20048;-94
2023/03/03 10:38:27;;;;;;;4.90;3.90;;;9.50;99.90;;;;;;6161139;23;20358;-93
2023/03/03 10:41:06;;;;;;;5.85;3.05;;;9.20;99.90;;;;;;6162882;23;20013;-94
2023/03/03 10:43:54;;;;;;;5.57;2.55;;;9.30;99.90;;;;;;6161785;23;20383;-95
2023/03/03 10:46:23;;;;;;;2.83;1.63;;;9.20;99.90;;;;;;6162528;23;20390;-95
2023/03/03 10:49:00;;;;;;;4.10;2.10;;;9.10;99.90;;;;;;6162201;23;20005;-94
2023/03/03 10:51:36;;;;;;;3.17;1.60;;;9.20;99.90;;;;;;6162019;23;20020;-96
2023/03/03 10:54:17;;;;;;;4.88;1.80;;;9.10;99.90;;;;;;6161330;23;20020;-93
2023/03/03 10:56:56;;;;;;;3.65;1.58;;;8.90;99.90;;;;;;6160942;23;20086;-95
2023/03/03 10:59:40;;;;;;;4.30;1.75;;;8.90;99.90;;;;;;6160728;23;20024;-93
2023/03/03 11:02:40;;;;;;;4.35;1.33;;;8.60;99.90;;;;;;6161039;23;20024;-95
2023/03/03 11:05:24;;;;;;;2.03;1.10;;;8.60;99.90;;;;;;6159866;23;20172;-94
2023/03/03 11:08:18;;;;;;;3.20;1.10;;;9.50;99.90;;;;;;6159270;23;20009;-93
2023/03/03 11:10:59;;;;;;;3.40;1.13;;;8.60;99.90;;;;;;6161475;23;20013;-93
2023/03/03 11:13:45;;;;;;;2.28;1.15;;;8.50;99.90;;;;;;6161277;23;20005;-94
2023/03/03 11:16:31;;;;;;;3.40;1.27;;;8.50;99.90;;;;;;6160444;23;20155;-95
2023/03/03 11:19:10;;;;;;;2.13;1.20;;;8.70;99.90;;;;;;6111834;23;20044;-94
2023/03/03 11:21:48;;;;;;;2.40;1.05;;;9.00;99.90;;;;;;6160781;23;20021;-94
2023/03/03 11:24:39;;;;;;;2.33;0.95;;;8.60;99.90;;;;;;6161588;23;20020;-93
2023/03/03 11:27:28;;;;;;;4.35;1.38;;;8.70;99.90;;;;;;6159269;23;20023;-93
2023/03/03 11:30:01;;;;;;;2.95;1.08;;;8.70;99.90;;;;;;6159753;23;20024;-94
2023/03/03 11:32:48;;;;;;;8.40;1.83;;;6.90;99.90;;;;;;6159963;23;20021;-94
2023/03/03 11:35:22;;;;;;;9.68;1.52;;;8.90;99.90;;;;;;6186853;23;20017;-94
2023/03/03 11:38:26;;;;;;;6.40;1.35;;;8.90;99.90;;;;;;6163706;23;20477;-95
2023/03/03 11:40:51;;;;;;;4.57;1.40;;;8.90;99.90;;;;;;6164157;23;20036;-93
2023/03/03 11:43:29;;;;;;;1.77;1.00;;;9.10;99.90;;;;;;6164146;23;20013;-93
2023/03/03 11:46:21;;;;;;;2.50;0.90;;;8.80;99.90;;;;;;6163325;23;20017;-94
2023/03/03 11:49:14;;;;;;;2.38;1.00;;;9.20;99.90;;;;;;6189567;23;20071;-93
2023/03/03 11:51:52;;;;;;;3.97;1.27;;;9.10;99.90;;;;;;6163563;23;19997;-93
2023/03/03 11:54:42;;;;;;;2.63;1.20;;;8.80;99.90;;;;;;6163492;23;20001;-94
2023/03/03 11:57:38;;;;;;;2.42;1.00;;;8.60;99.90;;;;;;6162951;23;20001;-94
2023/03/03 12:00:27;;;;;;;2.90;1.13;;;8.60;99.90;;;;;;6141105;23;20012;-94
2023/03/03 12:03:16;;;;;;;4.95;1.33;;;8.60;99.90;;;;;;6162417;23;20478;-94
2023/03/03 12:06:13;;;;;;;3.55;1.00;;;8.50;99.90;;;;;;6164220;23;20031;-95
2023/03/03 12:08:58;;;;;;;4.75;1.77;;;8.40;99.90;;;;;;6163136;23;20052;-95
2023/03/03 12:11:52;;;;;;;3.03;1.13;;;9.00;99.90;;;;;;6165142;23;20013;-94
2023/03/03 12:14:55;;;;;;;1.30;0.93;;;9.50;99.90;;;;;;6183933;23;20237;-95
2023/03/03 12:17:47;;;;;;;5.97;1.05;;;10.10;99.90;;;;;;6164028;23;20021;-95
2023/03/03 12:20:44;;;;;;;3.08;1.08;;;10.80;99.90;;;;;;6163124;23;20028;-96
2023/03/03 12:23:31;;;;;;;4.88;1.23;;;10.50;99.90;;;;;;6163746;23;20021;-95
2023/03/03 12:26:18;;;;;;;2.95;1.35;;;10.60;99.90;;;;;;6189026;23;20056;-94
2023/03/03 12:29:04;;;;;;;3.67;1.05;;;10.20;99.90;;;;;;6163242;23;20457;-94
2023/03/03 12:31:48;;;;;;;4.93;1.10;;;9.90;99.90;;;;;;6165030;23;20013;-96
2023/03/03 12:34:53;;;;;;;4.82;1.48;;;9.90;99.90;;;;;;6163659;23;20025;-95
2023/03/03 12:37:44;;;;;;;4.28;1.45;;;10.30;99.90;;;;;;6163118;23;20040;-95
2023/03/03 12:40:15;;;;;;;3.38;1.17;;;9.50;99.90;;;;;;6162314;23;20017;-95
2023/03/03 12:43:15;;;;;;;7.35;1.15;;;9.70;99.90;;;;;;6162769;23;20014;-94
2023/03/03 12:45:44;;;;;;;3.88;1.20;;;9.50;99.90;;;;;;6161499;23;20013;-94
2023/03/03 12:48:23;;;;;;;3.83;1.42;;;9.20;99.90;;;;;;6162852;23;20013;-94
2023/03/03 12:51:05;;;;;;;7.85;2.05;;;9.40;99.90;;;;;;6160678;23;20020;-94
2023/03/03 12:53:52;;;;;;;2.97;0.98;;;9.50;99.90;;;;;;6161514;23;20021;-95
2023/03/03 12:56:30;;;;;;;6.13;1.33;;;9.40;99.90;;;;;;6162752;23;20020;-94
2023/03/03 12:58:59;;;;;;;6.13;1.10;;;9.20;99.90;;;;;;6161862;23;20021;-94
2023/03/03 13:01:49;;;;;;;4.75;1.20;;;9.30;99.90;;;;;;6162203;23;20486;-94
2023/03/03 13:04:27;;;;;;;3.67;1.17;;;9.20;99.90;;;;;;6162309;23;20049;-95
2023/03/03 13:07:17;;;;;;;9.50;1.95;;;9.40;99.90;;;;;;6160932;23;20075;-93
2023/03/03 13:10:08;;;;;;;7.25;1.40;;;9.00;99.90;;;;;;6167352;23;20056;-95
2023/03/03 13:12:41;;;;;;;9.40;2.00;;;9.20;99.90;;;;;;6169062;23;20016;-94
2023/03/03 13:15:30;;;;;;;8.00;2.03;;;9.40;99.90;;;;;;6160612;23;20068;-94
2023/03/03 13:18:45;;;;;;;7.88;2.00;;;9.30;99.90;;;;;;6162107;23;20020;-93
2023/03/03 13:21:20;;;;;;;9.55;1.65;;;7.40;99.90;;;;;;6160961;23;20025;-94
2023/03/03 13:24:04;;;;;;;;;;;9.00;99.90;;;;;;6160764;23;20028;-94